Pilot Knob, Illinois
Current Conditions -  °F | °C
As of 10:55 PM on Wednesday 22 Oct 2014 (Local Time) from KSAR Reporting Station
Haze Haze  
Wind Chill: 43°   Ceiling: 700
Heat Index: 43°   Visibility: 1.2mi
Dew Point: 41°   Wind: 0mph
Humidity: 93%   Direction: NA
Pressure: 30.25"   Gusts: NA
Location:  38.318°N, 89.3879°W
Report Text: KSAR 230355Z AUTO 00000KT 1 1/4SM BR VV007 06/05 A3025 RMK AO2 T00620052 401720021
Loading
Personal Weather Stations






























Interactive Weather Map New forecast layout! Learn more

10-Day Weather Forecast

Advertisements
Track Severe Weather on mobile